Enion, Illinois
Current Conditions -  °F | °C
As of 3:50 PM on Wednesday 17 Dec 2014 (Local Time) from KPIA Reporting Station
Broken Clouds Broken Clouds  
Wind Chill: 22°   Ceiling: 2000
Heat Index: 28°   Visibility: 10mi
Dew Point: 19°   Wind: 6mph
Humidity: 69%   Direction: 270°W
Pressure: 30.28"   Gusts: NA
Location:  40.2774°N, 90.0095°W
Report Text: KPIA 172150Z 27005KT 10SM BKN020 M02/M07 A3028 RMK AO2
Loading
Personal Weather Stations






























Interactive Weather Map New forecast layout! Learn more

10-Day Weather Forecast

Advertisements
Track Severe Weather on mobile